Ride Results

Jolly Lette Memorial Ride (27-08-2016)
Ride distance: 80.0 km

Outcomes - Jolly Lette Memorial Ride (27-08-2016)
Division No. of Entries Retired / DNE Completed Withdrawn Ineligible V/O Percentage Completed
HW 3 - 2 - - 1 66.67%
MW 13 - 12 1 - - 92.31%
LW 5 - 4 - - 1 80.00%
JN 4 - 2 1 - 1 50.00%
Totals 25 - 20 2 - 3 80.00%
Results - Jolly Lette Memorial Ride (27-08-2016)
No. Rider Horse Place Time Leg Speeds Total
Km/Hr
H/R bpm
Heavyweight
122 Ged Nicklason Red Foo 1 (BC) 6:44:48 12.3, 11.4 11.86 35, 49, 56 (Avg:52)
22 Gregg Fields Rusleema Bint Sidu 2 7:48:22 8.8, 12.1 10.25 40, 47, 54 (Avg:50)
194 Robby Walsh Sno- Flake Lame L1 0:00:00 12.9 - 36, 50 (Avg:50)
Middleweight
125 Brooke Brown-Cordell Tierview Salama 1 4:09:24 18.4, 20.1 19.25 49, 45, 48 (Avg:46)
179 Debbie Grull Lauralyn Notorious 1 (BC) 4:09:24 18.4, 20.0 19.25 36, 44, 45 (Avg:44)
69 Tracey Wyllie Jaggah Ka 3 4:18:47 18.3, 18.7 18.55 33, 42, 44 (Avg:43)
76 Karin Morris Rivergum Skye 4 5:02:57 16.6, 15.0 15.84 37, 42, 46 (Avg:44)
80 Noel Lockhart KA Shazi 5 6:05:04 13.1, 13.1 13.15 37, 41, 45 (Avg:43)
66 Saeed Al Maktoum Highland View Platinum 6 6:05:05 13.1, 13.1 13.15 36, 38, 44 (Avg:41)
143 Pauline Goodwin Marley Hosanna 7 6:23:54 14.5, 10.9 12.50 33, 45, 46 (Avg:45)
271 Jessie Herman Highland View Pearl 8 6:41:48 13.1, 10.9 11.95 42, 46, 58 (Avg:52)
276 Naomi Maxwell Highland View Bill 9 6:42:05 13.1, 10.9 11.94 37, 49, 53 (Avg:51)
114 Tara Nicklason Cruze GT 10 6:44:45 12.3, 11.4 11.86 43, 54, 58 (Avg:56)
102 Keryn Mahoney Tonki Dee Boo Pricilla 11 7:07:04 11.4, 11.0 11.24 37, 40, 43 (Avg:41)
246 Sarah Parker Tonki Dee Boo Summa 12 7:07:05 11.4, 11.0 11.24 38, 45, 47 (Avg:46)
P Shannon Hill Ralvon Splendour Widthdrawn L1 0:00:00 - - 28, 38 (Avg:38)
Lightweight
289 Zehad Shek Lauralyn Kaw Liija 1 6:05:10 13.1, 13.1 13.14 39, 43, 49 (Avg:46)
90 Angela Hawks Cameo Chrizto 2 6:23:47 12.3, 12.7 12.51 39, 45, 46 (Avg:45)
305 Julie Carter Kalody Park Pure Steel 3 (BC) 6:23:50 14.0, 11.2 12.51 33, 45, 45 (Avg:45)
228 Melissa Kelly Harmony 3 6:23:50 14.5, 10.9 12.51 39, 40, 47 (Avg:43)
18 Karen Fields Trigger Heart Rate L2 0:00:00 8.8, 12.1 - 48, 51, 65 (Avg:58)
Junior
83 Indianna Humphries Byrnlea Park Vyrtigo 1 6:23:39 11.6, 13.5 12.51 31, 42, 46 (Avg:44)
140 Jaz Hutchins Dulwich Mystique 2 (BC) 6:49:12 11.3, 12.1 11.73 50, 47, 49 (Avg:48)
106 Kirsty Sward Neilly Highland View Indian Heart Rate L2 0:00:00 13.1, 10.9 - 40, 54, 65 (Avg:59)
297 Brittany Farrell Yondover Ridge Diva Widthdrawn L1 0:00:00 - - 39, 45 (Avg:45)